No se requiere un especial cuidado respecto a la situación meteorológica.   -   No hay avisos

Informes METAR

 

LEZL - Sevilla, Spain
Distancia de la estación: ENE 8km
Actualización: 20/10/2017 17:30
Poco nuboso
Poco nuboso
 Viento de variable
Viento: variable 2 km/h
Temperatura: 26°C
Rocío: 15°C
Humedad: 51%
Barómetro: 1020 hPa
Nubes: Poco nuboso
Visibilidad: 10 km
Detalles de las nubes: Poco nuboso 1219 m
2017/10/20 15:30 LEZL 201530Z VRB01KT 9999 FEW040 26/15 Q1020 NOSIG
LEMO - Morón, Spain
Distancia de la estación: SE 43km
Actualización: 20/10/2017 18:00
Poco nuboso
Poco nuboso
 Viento de NNE
Viento: NNE 2 km/h
Temperatura: 24°C
Rocío: 15°C
Humedad: 57%
Barómetro: 1021 hPa
Nubes: Poco nuboso
Visibilidad: 10 km
Detalles de las nubes: Poco nuboso 1067 m
2017/10/20 16:00 LEMO 201600Z 03001KT 9999 FEW035 24/15 Q1021 NOSIG
LEJR - Jeréz, Spain
Distancia de la estación: S 71km
Actualización: 20/10/2017 18:00
Parcialmente nuboso
Parcialmente nuboso
 Viento de O
Viento: O 17 km/h
Temperatura: 24°C
Rocío: 18°C
Humedad: 69%
Barómetro: 1021 hPa
Nubes: Parcialmente nuboso
Visibilidad: 10 km
Detalles de las nubes: Parcialmente nuboso 701 m
2017/10/20 16:00 LEJR 201600Z 27009KT 230V310 9999 SCT023 24/18 Q1021
 
LERT - Rota, Spain
Distancia de la estación: SSO 89km
Actualización: 20/10/2017 18:00
Poco nuboso
Poco nuboso
 Viento de ONO
Viento: ONO 17 km/h
Temperatura: 22°C
Rocío: 18°C
Humedad: 78%
Barómetro: 1021 hPa
Nubes: Poco nuboso
Visibilidad: 10 km
Detalles de las nubes: Poco nuboso 1097 m
2017/10/20 16:00 LERT 201600Z 30009KT 260V350 9999 FEW036 22/18 Q1021 NOSIG
LEMG - Málaga, Spain
Distancia de la estación: ESE 157km
Actualización: 20/10/2017 18:00
Poco nuboso
Poco nuboso
 Viento de ONO
Viento: ONO 22 km/h
Temperatura: 25°C
Rocío: 15°C
Humedad: 54%
Barómetro: 1019 hPa
Nubes: Poco nuboso
Visibilidad: 10 km
Detalles de las nubes: Poco nuboso 1524 m
2017/10/20 16:00 LEMG 201600Z 29012KT 9999 FEW050 25/15 Q1019 NOSIG
LEBA - Córdoba, Spain
Distancia de la estación: ENE 115km
Actualización: 20/10/2017 18:00
Poco nuboso
Poco nuboso
 Viento de calm
Viento: Calma
Temperatura: 24°C
Rocío: 15°C
Humedad: 57%
Barómetro: 1020 hPa
Nubes: Poco nuboso
Visibilidad: 10 km
Detalles de las nubes: Poco nuboso 1372 m
2017/10/20 16:00 LEBA 201600Z 00000KT 9999 FEW045 24/15 Q1020
 
LEGR - Granada, Spain
Distancia de la estación: E 198km
Actualización: 20/10/2017 18:00
Poco nuboso
Poco nuboso
 Viento de O
Viento: O 17 km/h
Temperatura: 22°C
Rocío: 14°C
Humedad: 61%
Barómetro: 1021 hPa
Nubes: Poco nuboso
Visibilidad: 10 km
Detalles de las nubes: Poco nuboso 1219 m
2017/10/20 16:00 LEGR 201600Z 28009KT 250V310 9999 FEW040 22/14 Q1021
LEAM - Almería, Spain
Distancia de la estación: E 326km
Actualización: 20/10/2017 18:00
Poco nuboso
Poco nuboso
 Viento de variable
Viento: variable 4 km/h
Temperatura: 23°C
Rocío: 18°C
Humedad: 74%
Barómetro: 1019 hPa
Nubes: Poco nuboso
Visibilidad: 10 km
Detalles de las nubes: Poco nuboso 1524 m
2017/10/20 16:00 LEAM 201600Z VRB02KT 9999 FEW050 23/18 Q1019
LEMD - Madrid/Barajas, Spain
Distancia de la estación: NNE 402km
Actualización: 20/10/2017 18:00
Poco nuboso
Poco nuboso
 Viento de S
Viento: S 17 km/h, Racha: 39 km/h
Temperatura: 21°C
Rocío: 13°C
Humedad: 60%
Barómetro: 1021 hPa
Nubes: Poco nuboso
Visibilidad: 10 km
Detalles de las nubes: Poco nuboso 1372 m
2017/10/20 16:00 LEMD 201600Z 19009G21KT 170V230 9999 FEW045 21/13 Q1021 NOSIG
 
LEVD - Valladolid, Spain
Distancia de la estación: N 492km
Actualización: 20/10/2017 18:00
Muy nuboso
Muy nuboso
 Viento de OSO
Viento: OSO 22 km/h
Temperatura: 19°C
Rocío: 12°C
Humedad: 64%
Barómetro: 1021 hPa
Nubes: Muy nuboso
Visibilidad: 10 km
Detalles de las nubes: Parcialmente nuboso 853 m
Muy nuboso 1067 m
2017/10/20 16:00 LEVD 201600Z 25012KT 9999 SCT028 BKN035 19/12 Q1021
LEBL - Barcelona, Spain
Distancia de la estación: NE 816km
Actualización: 20/10/2017 18:00
Poco nuboso
Poco nuboso
 Viento de SE
Viento: SE 7 km/h
Temperatura: 22°C
Rocío: 17°C
Humedad: 73%
Barómetro: 1018 hPa
Nubes: Poco nuboso
Visibilidad: 10 km
Detalles de las nubes: Poco nuboso 762 m
2017/10/20 16:00 LEBL 201600Z 13004KT 9999 FEW025 22/17 Q1018 NOSIG
LEVC - Valencia, Spain
Distancia de la estación: ENE 535km
Actualización: 20/10/2017 18:00
Poco nuboso
Poco nuboso
 Viento de E
Viento: E 15 km/h
Temperatura: 23°C
Rocío: 13°C
Humedad: 53%
Barómetro: 1019 hPa
Nubes: Poco nuboso
Visibilidad: 10 km
Detalles de las nubes: Poco nuboso 1219 m
2017/10/20 16:00 LEVC 201600Z 10008KT 070V140 9999 FEW040 23/13 Q1019 NOSIG